LiveATC.Net - Listen to live air traffic control over the Internet!


ICAO: PAED  IATA: EDF   Airport: Elmendorf Air Force Base
City: Anchorage   State/Province: Alaska
Country: United States   Continent: North America
PAED METAR Weather: PAED 151856Z AUTO 00000KT 10SM OVC150 M06/M08 A2960 RMK AO2 SLP022 T10591076 $
PAED Flight Activity (FlightAware)
PAED Airport Info   (iFlightPlanner)
PAED VFR Sectional Chart   (iFlightPlanner) 
PAED IFR Low Chart   (iFlightPlanner) 

PAED Gnd/Twr
Feed Status: UP   Listeners: 0
Listen in your browser - HTML5 player (in browser, HTML5)
Click here to listen with your own player (launches your MP3 player)
Archive Access: PAED Gnd/Twr
FacilityFrequency
Elmendorf Ground121.800
Elmendorf Tower127.200
Feed sponsored by: SkyTrek Alaska Flight Training

NOTICE

Unauthorized use prohibited. See LiveATC.net Terms of Service


Airport/ARTCC Code
Frequency Search
(e.g., 124.400, 128.75)
Site-wide search
 


Browse Feeds
Top 50 Feeds
Coverage Map
Bad Weather Areas

LiveATC FAQ
Offer LiveATC feed
Contact LiveATC.net
Press Inquiries

LiveATC on iPhone
LiveATC on Android

Windows Phone
Windows 8/10

LiveATC Mobile
(Mobile browser)

ATC Audio Archives
Interesting Recordings

LiveATC Forums


Home Page
About LiveATC.net
Make a Donation
Terms of Use
Privacy Policy

Canadian Air Freqs

AIRMETs/SIGMETs

FAA Airport Status
Nat'l Airspace Status
Arrival Demand Charts


Server Software By:
Icecast.org
Liquidsoap